createdAt,value
2022-09-28T00:02:25.606Z,17.40
2022-09-28T00:04:52.470Z,17.40
2022-09-28T00:07:19.307Z,17.40
2022-09-28T00:09:46.073Z,17.40
2022-09-28T00:12:12.818Z,17.40
2022-09-28T00:14:40.640Z,17.40
2022-09-28T00:17:08.317Z,17.50
2022-09-28T00:19:35.094Z,17.50
2022-09-28T00:22:01.989Z,17.50
2022-09-28T00:24:29.590Z,17.50
2022-09-28T00:26:58.844Z,17.50
2022-09-28T00:29:26.555Z,17.60
2022-09-28T00:32:00.535Z,17.60
2022-09-28T00:34:27.952Z,17.60
2022-09-28T00:36:54.873Z,17.60
2022-09-28T00:39:21.677Z,17.60
2022-09-28T00:41:48.694Z,17.50
2022-09-28T00:44:24.585Z,17.60
2022-09-28T00:46:57.073Z,17.60
2022-09-28T00:49:33.239Z,17.60
2022-09-28T00:52:01.746Z,17.60
2022-09-28T00:54:28.990Z,17.60
2022-09-28T00:56:56.365Z,17.60
2022-09-28T00:59:24.821Z,17.60
2022-09-28T01:01:51.696Z,17.60
2022-09-28T01:04:18.496Z,17.60
2022-09-28T01:06:46.819Z,17.60
2022-09-28T01:09:15.391Z,17.60
2022-09-28T01:11:43.016Z,17.50
2022-09-28T01:14:14.405Z,17.50
2022-09-28T01:16:47.410Z,17.50
2022-09-28T01:19:31.588Z,17.40
2022-09-28T01:22:29.200Z,17.40
2022-09-28T01:24:58.913Z,17.00
2022-09-28T01:27:34.185Z,17.00
2022-09-28T01:30:09.109Z,17.00
2022-09-28T01:32:38.580Z,17.00
2022-09-28T01:35:20.653Z,17.00
2022-09-28T01:37:52.866Z,17.10
2022-09-28T01:40:22.756Z,17.10
2022-09-28T01:42:54.962Z,17.10
2022-09-28T01:45:31.111Z,17.20
2022-09-28T01:48:02.395Z,17.20
2022-09-28T01:50:33.980Z,17.10
2022-09-28T01:53:12.787Z,17.10
2022-09-28T01:55:48.216Z,17.10
2022-09-28T01:58:38.648Z,17.00
2022-09-28T02:01:24.742Z,16.90
2022-09-28T02:04:05.206Z,16.80
2022-09-28T02:06:40.647Z,16.80
2022-09-28T02:09:13.907Z,16.80
2022-09-28T02:11:45.768Z,16.80
2022-09-28T02:14:15.562Z,16.80
2022-09-28T02:16:50.432Z,16.80
2022-09-28T02:19:21.305Z,16.70
2022-09-28T02:22:13.675Z,16.80
2022-09-28T02:24:56.901Z,16.90
2022-09-28T02:27:29.697Z,16.80
2022-09-28T02:29:56.459Z,16.90
2022-09-28T02:32:26.229Z,16.90
2022-09-28T02:34:53.093Z,17.00
2022-09-28T02:37:19.969Z,17.00
2022-09-28T02:39:46.703Z,16.90
2022-09-28T02:42:23.845Z,16.90
2022-09-28T02:45:23.172Z,16.90
2022-09-28T02:48:11.812Z,16.90
2022-09-28T02:50:53.595Z,16.90
2022-09-28T02:53:38.865Z,16.80
2022-09-28T02:56:25.401Z,16.70
2022-09-28T02:59:22.109Z,16.60
2022-09-28T03:02:00.995Z,16.60
2022-09-28T03:04:37.064Z,16.60
2022-09-28T03:07:06.884Z,16.60
2022-09-28T03:09:49.524Z,16.70
2022-09-28T03:12:20.028Z,16.70
2022-09-28T03:14:46.870Z,16.70
2022-09-28T03:17:13.574Z,16.80
2022-09-28T03:19:40.379Z,16.70
2022-09-28T03:22:08.004Z,16.70
2022-09-28T03:24:35.017Z,16.80
2022-09-28T03:27:01.748Z,16.80
2022-09-28T03:29:31.350Z,16.80
2022-09-28T03:31:58.179Z,16.90
2022-09-28T03:34:24.921Z,16.90
2022-09-28T03:36:51.626Z,16.90
2022-09-28T03:39:18.552Z,16.90
2022-09-28T03:41:45.499Z,16.90
2022-09-28T03:44:12.268Z,16.90
2022-09-28T03:46:39.074Z,16.80
2022-09-28T03:49:05.812Z,16.80
2022-09-28T03:51:32.678Z,16.80
2022-09-28T03:53:59.622Z,16.70
2022-09-28T03:56:26.441Z,16.70
2022-09-28T03:58:53.172Z,16.70
2022-09-28T04:01:20.115Z,16.70
2022-09-28T04:03:47.697Z,16.70
2022-09-28T04:06:15.364Z,16.60
2022-09-28T04:08:43.409Z,16.60
2022-09-28T04:11:10.321Z,16.60
2022-09-28T04:13:37.360Z,16.60
2022-09-28T04:16:05.104Z,16.50
2022-09-28T04:18:32.780Z,16.50
2022-09-28T04:21:09.055Z,16.50
2022-09-28T04:23:37.273Z,16.50
2022-09-28T04:26:05.797Z,16.40
2022-09-28T04:28:51.126Z,16.40
2022-09-28T04:31:24.530Z,16.40
2022-09-28T04:33:51.485Z,16.40
2022-09-28T04:36:19.790Z,16.30
2022-09-28T04:38:53.242Z,16.30
2022-09-28T04:41:22.437Z,16.30
2022-09-28T04:43:49.938Z,16.30
2022-09-28T04:46:17.496Z,16.30
2022-09-28T04:48:44.362Z,16.30
2022-09-28T04:51:11.569Z,16.30
2022-09-28T04:53:38.465Z,16.30
2022-09-28T04:56:11.559Z,16.30
2022-09-28T04:58:38.624Z,16.30
2022-09-28T05:01:08.173Z,16.30
2022-09-28T05:03:35.835Z,16.30
2022-09-28T05:06:02.906Z,16.30
2022-09-28T05:08:30.386Z,16.20
2022-09-28T05:11:02.851Z,16.20
2022-09-28T05:13:30.952Z,16.20
2022-09-28T05:16:04.429Z,16.10
2022-09-28T05:18:32.240Z,16.00
2022-09-28T05:20:59.140Z,16.00
2022-09-28T05:23:25.923Z,16.00
2022-09-28T05:25:52.828Z,16.00
2022-09-28T05:28:29.158Z,15.90
2022-09-28T05:31:03.653Z,15.90
2022-09-28T05:33:31.425Z,15.90
2022-09-28T05:36:01.349Z,15.90
2022-09-28T05:38:29.890Z,15.90
2022-09-28T05:40:56.952Z,15.90
2022-09-28T05:43:23.964Z,15.90
2022-09-28T05:45:55.307Z,15.80
2022-09-28T05:48:23.301Z,15.80
2022-09-28T05:50:53.469Z,15.70
2022-09-28T05:53:20.422Z,15.70
2022-09-28T05:55:47.971Z,15.70
2022-09-28T05:58:14.787Z,15.70
2022-09-28T06:00:41.989Z,15.70
2022-09-28T06:03:11.900Z,15.70
2022-09-28T06:05:39.545Z,15.70
2022-09-28T06:08:08.516Z,15.70
2022-09-28T06:10:35.454Z,15.70
2022-09-28T06:13:02.432Z,15.70
2022-09-28T06:15:31.454Z,15.70
2022-09-28T06:18:03.496Z,15.70
2022-09-28T06:20:35.679Z,15.70
2022-09-28T06:23:02.746Z,15.70
2022-09-28T06:25:29.573Z,15.60
2022-09-28T06:28:04.686Z,15.60
2022-09-28T06:30:33.684Z,15.60
2022-09-28T06:33:02.159Z,15.50
2022-09-28T06:35:31.118Z,15.50
2022-09-28T06:37:59.337Z,15.50
2022-09-28T06:40:26.602Z,15.50
2022-09-28T06:43:00.259Z,15.50
2022-09-28T06:45:28.274Z,15.50
2022-09-28T06:47:57.438Z,15.50
2022-09-28T06:50:31.069Z,15.40
2022-09-28T06:52:58.262Z,15.40
2022-09-28T06:55:25.188Z,15.40
2022-09-28T06:57:59.331Z,15.40
2022-09-28T07:00:27.633Z,15.60
2022-09-28T07:02:54.491Z,15.60
2022-09-28T07:05:26.632Z,15.60
2022-09-28T07:07:57.274Z,15.70
2022-09-28T07:10:29.058Z,15.70
2022-09-28T07:12:57.185Z,15.80
2022-09-28T07:15:25.027Z,15.80
2022-09-28T07:18:02.638Z,15.90
2022-09-28T07:20:45.613Z,16.00
2022-09-28T07:23:19.354Z,16.10
2022-09-28T07:25:50.226Z,16.20
2022-09-28T07:28:21.156Z,16.20
2022-09-28T07:30:48.293Z,16.10
2022-09-28T07:33:17.183Z,16.10
2022-09-28T07:35:52.385Z,16.10
2022-09-28T07:38:19.443Z,16.20
2022-09-28T07:41:05.328Z,16.20
2022-09-28T07:43:32.873Z,16.20
2022-09-28T07:45:59.753Z,16.20
2022-09-28T07:48:26.754Z,16.20
2022-09-28T07:50:57.487Z,16.20
2022-09-28T07:53:25.706Z,16.30
2022-09-28T07:55:53.228Z,16.40
2022-09-28T07:58:20.693Z,16.40
2022-09-28T08:00:49.277Z,16.50
2022-09-28T08:03:18.273Z,16.50
2022-09-28T08:05:46.970Z,16.50
2022-09-28T08:08:14.908Z,16.50
2022-09-28T08:10:47.261Z,16.60
2022-09-28T08:13:16.315Z,16.60
2022-09-28T08:15:43.054Z,16.60
2022-09-28T08:18:10.392Z,16.60
2022-09-28T08:20:55.642Z,16.60
2022-09-28T08:23:23.630Z,16.60
2022-09-28T08:25:54.191Z,16.60
2022-09-28T08:28:22.725Z,16.60
2022-09-28T08:30:50.224Z,16.60
2022-09-28T08:33:20.281Z,16.70
2022-09-28T08:35:47.334Z,16.70
2022-09-28T08:38:15.312Z,16.70
2022-09-28T08:40:58.507Z,16.80
2022-09-28T08:44:04.117Z,16.90
2022-09-28T08:46:42.088Z,16.90
2022-09-28T08:49:31.220Z,17.00
2022-09-28T08:52:07.844Z,17.00
2022-09-28T08:55:13.808Z,17.00
2022-09-28T08:57:57.699Z,17.00
2022-09-28T09:00:48.606Z,17.00
2022-09-28T09:03:20.821Z,17.00
2022-09-28T09:06:23.540Z,17.00
2022-09-28T09:09:22.274Z,17.00
2022-09-28T09:12:00.803Z,17.10
2022-09-28T09:14:33.989Z,17.00
2022-09-28T09:17:26.067Z,17.10
2022-09-28T09:19:55.141Z,17.20
2022-09-28T09:22:45.984Z,17.20
2022-09-28T09:25:38.919Z,17.30
2022-09-28T09:28:28.715Z,17.30
2022-09-28T09:31:04.494Z,17.40
2022-09-28T09:33:53.520Z,17.30
2022-09-28T09:36:28.956Z,17.40
2022-09-28T09:39:18.943Z,17.50
2022-09-28T09:42:02.615Z,17.50
2022-09-28T09:45:05.076Z,17.50
2022-09-28T09:47:56.443Z,17.60
2022-09-28T09:50:59.834Z,17.70
2022-09-28T09:53:46.557Z,17.90
2022-09-28T09:56:26.798Z,18.00
2022-09-28T09:59:01.921Z,18.10
2022-09-28T10:01:41.055Z,18.20
2022-09-28T10:04:32.207Z,18.30
2022-09-28T10:07:06.655Z,18.30
2022-09-28T10:09:39.040Z,18.40
2022-09-28T10:12:12.179Z,18.30
2022-09-28T10:14:39.154Z,18.20
2022-09-28T10:17:06.004Z,18.30
2022-09-28T10:19:34.853Z,18.20
2022-09-28T10:22:05.414Z,18.40
2022-09-28T10:24:47.418Z,18.30
2022-09-28T10:27:17.163Z,18.30
2022-09-28T10:30:12.839Z,18.30
2022-09-28T10:32:47.412Z,18.40
2022-09-28T10:35:20.189Z,18.50
2022-09-28T10:38:14.210Z,18.50
2022-09-28T10:40:51.156Z,18.70
2022-09-28T10:43:23.512Z,18.90
2022-09-28T10:46:05.958Z,19.10
2022-09-28T10:48:56.043Z,19.20
2022-09-28T10:51:45.087Z,19.30
2022-09-28T10:54:20.465Z,19.40
2022-09-28T10:56:48.377Z,19.30
2022-09-28T10:59:30.404Z,19.40
2022-09-28T11:02:21.614Z,19.40
2022-09-28T11:04:55.255Z,19.40
2022-09-28T11:07:33.364Z,19.50
2022-09-28T11:10:01.431Z,19.50
2022-09-28T11:12:37.088Z,19.50
2022-09-28T11:15:07.341Z,19.40
2022-09-28T11:17:44.140Z,19.40
2022-09-28T11:20:28.467Z,19.40
2022-09-28T11:23:20.537Z,19.30
2022-09-28T11:25:59.935Z,19.30
2022-09-28T11:28:35.912Z,19.30
2022-09-28T11:31:04.043Z,19.20
2022-09-28T11:33:35.140Z,19.20
2022-09-28T11:36:13.910Z,19.30
2022-09-28T11:38:48.524Z,19.40
2022-09-28T11:41:44.257Z,19.50
2022-09-28T11:44:39.049Z,19.60
2022-09-28T11:47:35.997Z,19.60
2022-09-28T11:50:24.398Z,19.70
2022-09-28T11:52:56.887Z,19.70
2022-09-28T11:55:42.120Z,19.70
2022-09-28T11:58:27.650Z,19.80
2022-09-28T12:01:35.589Z,19.80
2022-09-28T12:04:33.970Z,19.80
2022-09-28T12:07:09.067Z,19.80
2022-09-28T12:10:10.430Z,19.80
2022-09-28T12:13:02.195Z,19.80
2022-09-28T12:16:06.283Z,19.80
2022-09-28T12:18:52.288Z,19.80
2022-09-28T12:21:25.575Z,19.90
2022-09-28T12:24:00.712Z,20.00
2022-09-28T12:26:42.021Z,20.00
2022-09-28T12:29:18.506Z,20.10
2022-09-28T12:32:02.221Z,20.20
2022-09-28T12:34:29.109Z,20.10
2022-09-28T12:37:21.872Z,20.10
2022-09-28T12:39:57.978Z,20.10
2022-09-28T12:42:46.284Z,20.00
2022-09-28T12:46:06.718Z,20.00
2022-09-28T12:49:51.539Z,19.80
2022-09-28T12:52:00.272Z,19.60
2022-09-28T12:54:54.287Z,19.50
2022-09-28T12:57:29.937Z,19.60
2022-09-28T13:00:13.275Z,19.60
2022-09-28T13:02:58.262Z,19.60
2022-09-28T13:05:51.439Z,19.60
2022-09-28T13:08:41.335Z,19.50
2022-09-28T13:11:36.870Z,19.70
2022-09-28T13:14:13.843Z,19.80
2022-09-28T13:17:00.748Z,19.70
2022-09-28T13:19:58.103Z,19.80
2022-09-28T13:22:44.074Z,19.80
2022-09-28T13:25:19.231Z,19.70
2022-09-28T13:27:55.222Z,19.70
2022-09-28T13:30:22.665Z,19.70
2022-09-28T13:32:50.298Z,19.80
2022-09-28T13:35:21.383Z,19.80
2022-09-28T13:37:48.784Z,19.90
2022-09-28T13:40:15.778Z,20.00
2022-09-28T13:42:55.808Z,19.90
2022-09-28T13:45:33.897Z,20.00
2022-09-28T13:49:02.025Z,20.00
2022-09-28T13:51:42.121Z,20.00
2022-09-28T13:54:26.834Z,20.00
2022-09-28T13:57:12.009Z,20.10
2022-09-28T14:00:15.562Z,20.20
2022-09-28T14:02:45.605Z,20.20
2022-09-28T14:05:27.112Z,20.30
2022-09-28T14:08:09.189Z,20.50
2022-09-28T14:10:53.659Z,20.50
2022-09-28T14:13:42.017Z,20.60
2022-09-28T14:16:35.545Z,20.60
2022-09-28T14:19:07.154Z,20.60
2022-09-28T14:22:17.798Z,20.60
2022-09-28T14:25:09.325Z,20.60
2022-09-28T14:27:38.923Z,20.60
2022-09-28T14:30:44.678Z,20.50
2022-09-28T14:33:20.608Z,20.50
2022-09-28T14:35:56.511Z,20.50
2022-09-28T14:38:49.442Z,20.50
2022-09-28T14:41:41.857Z,20.50
2022-09-28T14:44:09.496Z,20.50
2022-09-28T14:46:39.186Z,20.50
2022-09-28T14:49:19.512Z,20.50
2022-09-28T14:51:57.883Z,20.60
2022-09-28T14:54:31.305Z,20.60
2022-09-28T14:57:09.340Z,20.70
2022-09-28T14:59:44.303Z,20.70
2022-09-28T15:02:10.993Z,20.80
2022-09-28T15:04:43.397Z,20.80
2022-09-28T15:07:34.291Z,20.80
2022-09-28T15:10:02.715Z,20.80
2022-09-28T15:12:32.666Z,20.80
2022-09-28T15:15:02.410Z,20.70
2022-09-28T15:17:37.066Z,20.70
2022-09-28T15:20:52.094Z,20.70
2022-09-28T15:23:33.047Z,20.60
2022-09-28T15:26:00.370Z,20.60
2022-09-28T15:28:27.471Z,20.60
2022-09-28T15:31:02.650Z,20.60
2022-09-28T15:33:50.586Z,20.60
2022-09-28T15:36:27.908Z,20.60
2022-09-28T15:39:03.174Z,20.50
2022-09-28T15:41:31.201Z,20.60
2022-09-28T15:44:07.235Z,20.50
2022-09-28T15:46:35.978Z,20.60
2022-09-28T15:49:04.753Z,20.50
2022-09-28T15:51:46.049Z,20.50
2022-09-28T15:54:31.232Z,20.50
2022-09-28T15:57:02.829Z,20.50
2022-09-28T15:59:39.352Z,20.50
2022-09-28T16:02:18.623Z,20.50
2022-09-28T16:04:53.020Z,20.50
2022-09-28T16:07:34.494Z,20.50
2022-09-28T16:10:04.673Z,20.50
2022-09-28T16:12:42.685Z,20.50
2022-09-28T16:15:20.281Z,20.50
2022-09-28T16:17:55.189Z,20.50
2022-09-28T16:20:23.800Z,20.50
2022-09-28T16:22:50.801Z,20.50
2022-09-28T16:25:24.498Z,20.50
2022-09-28T16:27:53.693Z,20.50
2022-09-28T16:30:30.092Z,20.40
2022-09-28T16:33:02.310Z,20.40
2022-09-28T16:35:30.899Z,20.30
2022-09-28T16:37:59.005Z,20.30
2022-09-28T16:40:26.742Z,20.10
2022-09-28T16:42:57.455Z,20.10
2022-09-28T16:45:24.489Z,20.10
2022-09-28T16:47:52.460Z,20.00
2022-09-28T16:50:23.204Z,19.90
2022-09-28T16:53:22.880Z,19.90
2022-09-28T16:55:49.954Z,19.80
2022-09-28T16:58:16.890Z,19.80
2022-09-28T17:00:43.669Z,19.70
2022-09-28T17:03:18.451Z,19.70
2022-09-28T17:05:46.650Z,19.70
2022-09-28T17:08:18.581Z,19.60
2022-09-28T17:11:13.947Z,19.60
2022-09-28T17:13:44.064Z,19.60
2022-09-28T17:16:28.149Z,19.50
2022-09-28T17:19:22.432Z,19.40
2022-09-28T17:21:51.002Z,19.30
2022-09-28T17:24:18.971Z,19.20
2022-09-28T17:26:49.059Z,19.10
2022-09-28T17:29:16.054Z,19.10
2022-09-28T17:31:44.480Z,19.00
2022-09-28T17:34:12.651Z,19.00
2022-09-28T17:36:41.751Z,18.90
2022-09-28T17:39:16.495Z,18.80
2022-09-28T17:41:43.603Z,18.80
2022-09-28T17:44:10.814Z,18.70
2022-09-28T17:46:40.696Z,18.60
2022-09-28T17:49:11.508Z,18.60
2022-09-28T17:51:38.718Z,18.50
2022-09-28T17:54:08.048Z,18.50
2022-09-28T17:56:35.953Z,18.40
2022-09-28T17:59:10.128Z,18.40
2022-09-28T18:01:39.151Z,18.40
2022-09-28T18:04:08.857Z,18.30
2022-09-28T18:06:39.199Z,18.30
2022-09-28T18:09:05.958Z,18.20
2022-09-28T18:11:33.846Z,18.20
2022-09-28T18:14:00.871Z,18.10
2022-09-28T18:16:28.972Z,18.10
2022-09-28T18:18:55.998Z,18.10
2022-09-28T18:21:22.814Z,18.10
2022-09-28T18:23:49.634Z,18.00
2022-09-28T18:26:18.988Z,18.00
2022-09-28T18:28:45.869Z,18.00
2022-09-28T18:31:15.113Z,18.00
2022-09-28T18:33:42.158Z,18.00
2022-09-28T18:36:08.961Z,18.00
2022-09-28T18:38:36.923Z,18.00
2022-09-28T18:41:11.408Z,17.90
2022-09-28T18:43:38.177Z,17.90
2022-09-28T18:46:09.476Z,17.90
2022-09-28T18:48:37.669Z,17.80
2022-09-28T18:51:08.829Z,17.80
2022-09-28T18:53:36.017Z,17.70
2022-09-28T18:56:10.803Z,17.70
2022-09-28T18:58:39.525Z,17.70
2022-09-28T19:01:32.176Z,17.60
2022-09-28T19:04:05.454Z,17.60
2022-09-28T19:06:34.283Z,17.60
2022-09-28T19:09:01.570Z,17.50
2022-09-28T19:11:28.847Z,17.50
2022-09-28T19:13:56.139Z,17.50
2022-09-28T19:16:25.930Z,17.50
2022-09-28T19:18:53.640Z,17.50
2022-09-28T19:21:21.085Z,17.40
2022-09-28T19:23:53.594Z,17.40
2022-09-28T19:26:26.877Z,17.40
2022-09-28T19:28:55.505Z,17.30
2022-09-28T19:31:22.997Z,17.30
2022-09-28T19:33:50.475Z,17.20
2022-09-28T19:36:19.874Z,17.20
2022-09-28T19:38:46.681Z,17.20
2022-09-28T19:41:39.459Z,17.10
2022-09-28T19:44:29.673Z,17.10
2022-09-28T19:47:09.859Z,17.10
2022-09-28T19:49:38.663Z,17.00
2022-09-28T19:52:18.219Z,17.00
2022-09-28T19:54:56.596Z,17.00
2022-09-28T19:57:26.132Z,17.00
2022-09-28T19:59:57.815Z,17.00
2022-09-28T20:02:27.998Z,16.90
2022-09-28T20:04:54.837Z,16.90
2022-09-28T20:07:21.583Z,16.80
2022-09-28T20:09:48.326Z,16.80
2022-09-28T20:12:15.070Z,16.70
2022-09-28T20:14:41.859Z,16.80
2022-09-28T20:17:09.414Z,16.70
2022-09-28T20:19:36.187Z,16.70
2022-09-28T20:22:03.535Z,16.60
2022-09-28T20:24:31.212Z,16.60
2022-09-28T20:26:58.526Z,16.60
2022-09-28T20:29:25.342Z,16.60
2022-09-28T20:31:52.252Z,16.60
2022-09-28T20:34:19.058Z,16.60
2022-09-28T20:36:45.826Z,16.50
2022-09-28T20:39:13.058Z,16.50
2022-09-28T20:41:40.308Z,16.50
2022-09-28T20:44:07.518Z,16.50
2022-09-28T20:46:35.793Z,16.40
2022-09-28T20:49:03.619Z,16.40
2022-09-28T20:51:30.619Z,16.40
2022-09-28T20:53:58.938Z,16.40
2022-09-28T20:56:26.937Z,16.40
2022-09-28T20:58:54.473Z,16.40
2022-09-28T21:01:29.901Z,16.40
2022-09-28T21:04:02.089Z,16.40
2022-09-28T21:06:33.553Z,16.40
2022-09-28T21:09:00.591Z,16.40
2022-09-28T21:11:28.653Z,16.40
2022-09-28T21:14:00.367Z,16.50
2022-09-28T21:16:29.224Z,16.50
2022-09-28T21:18:56.212Z,16.50
2022-09-28T21:21:24.173Z,16.60
2022-09-28T21:23:55.295Z,16.60
2022-09-28T21:26:25.100Z,16.60
2022-09-28T21:29:18.389Z,16.60
2022-09-28T21:31:46.703Z,16.60
2022-09-28T21:34:15.012Z,16.50
2022-09-28T21:36:43.335Z,16.50
2022-09-28T21:39:10.589Z,16.50
2022-09-28T21:41:37.834Z,16.50
2022-09-28T21:44:05.056Z,16.40
2022-09-28T21:46:34.766Z,16.40
2022-09-28T21:49:03.930Z,16.30
2022-09-28T21:51:31.237Z,16.30
2022-09-28T21:53:58.055Z,16.30
2022-09-28T21:56:25.274Z,16.20
2022-09-28T21:58:52.492Z,16.20
2022-09-28T22:01:22.190Z,16.20
2022-09-28T22:03:51.608Z,16.20
2022-09-28T22:06:20.390Z,16.20
2022-09-28T22:08:48.197Z,16.20
2022-09-28T22:11:18.207Z,16.20
2022-09-28T22:13:50.097Z,16.20
2022-09-28T22:16:18.681Z,16.10
2022-09-28T22:18:45.732Z,16.20
2022-09-28T22:21:21.736Z,16.20
2022-09-28T22:23:48.888Z,16.30
2022-09-28T22:26:19.073Z,16.30
2022-09-28T22:28:48.291Z,16.30
2022-09-28T22:31:16.179Z,16.30
2022-09-28T22:33:43.297Z,16.30
2022-09-28T22:36:10.326Z,16.30
2022-09-28T22:38:37.659Z,16.20
2022-09-28T22:41:04.441Z,16.20
2022-09-28T22:43:31.772Z,16.20
2022-09-28T22:46:26.209Z,16.10
2022-09-28T22:48:55.454Z,16.10
2022-09-28T22:51:23.541Z,16.00
2022-09-28T22:53:50.290Z,16.00
2022-09-28T22:56:19.206Z,16.00
2022-09-28T22:58:46.473Z,16.00
2022-09-28T23:01:24.468Z,16.00
2022-09-28T23:03:52.610Z,16.00
2022-09-28T23:06:21.216Z,16.00
2022-09-28T23:08:48.672Z,16.00
2022-09-28T23:11:15.781Z,16.00
2022-09-28T23:13:42.663Z,16.00
2022-09-28T23:16:12.111Z,16.00
2022-09-28T23:18:43.725Z,16.00
2022-09-28T23:21:15.199Z,16.00
2022-09-28T23:23:43.264Z,16.00
2022-09-28T23:26:16.172Z,16.00
2022-09-28T23:28:43.549Z,16.00
2022-09-28T23:31:15.553Z,16.00
2022-09-28T23:33:42.438Z,16.00
2022-09-28T23:36:09.610Z,16.00
2022-09-28T23:38:36.532Z,16.00
2022-09-28T23:41:03.390Z,15.90
2022-09-28T23:43:30.089Z,15.90
2022-09-28T23:45:56.902Z,15.90
2022-09-28T23:48:23.724Z,15.80
2022-09-28T23:50:50.551Z,15.90
2022-09-28T23:53:17.273Z,15.80
2022-09-28T23:55:43.997Z,15.80
2022-09-28T23:58:11.556Z,15.80
